Aviation Digital Data Service (ADDS)

Output produced by TAFs form (0212 UTC 29 May 2015)
found at http://aviationweather.gov/adds/tafs/
 
KPUB 290105Z 2901/2924 08008KT P6SM SCT090 BKN150 
     FM290300 03008KT P6SM SCT120 SCT200 
     FM290600 30006KT P6SM SCT100 SCT200 
     FM291300 03012KT P6SM SCT050 BKN100 
     FM291800 08012KT P6SM VCSH BKN050